createdAt,value
2023-11-29T00:01:33.655Z,-2.75
2023-11-29T00:04:00.474Z,-2.76
2023-11-29T00:06:27.061Z,-2.77
2023-11-29T00:08:57.078Z,-2.75
2023-11-29T00:11:27.473Z,-2.76
2023-11-29T00:13:53.912Z,-2.78
2023-11-29T00:16:20.768Z,-2.78
2023-11-29T00:18:49.144Z,-2.79
2023-11-29T00:21:15.755Z,-2.80
2023-11-29T00:23:42.191Z,-2.84
2023-11-29T00:26:09.150Z,-2.83
2023-11-29T00:28:35.616Z,-2.84
2023-11-29T00:31:02.456Z,-2.87
2023-11-29T00:33:28.916Z,-2.89
2023-11-29T00:35:56.000Z,-2.91
2023-11-29T00:38:23.692Z,-2.94
2023-11-29T00:40:51.830Z,-2.93
2023-11-29T00:43:18.951Z,-2.91
2023-11-29T00:45:45.461Z,-2.93
2023-11-29T00:48:12.003Z,-2.93
2023-11-29T00:50:38.637Z,-2.93
2023-11-29T00:53:05.199Z,-2.94
2023-11-29T00:55:35.402Z,-2.92
2023-11-29T00:58:04.086Z,-2.92
2023-11-29T01:00:30.776Z,-2.94
2023-11-29T01:02:59.151Z,-2.94
2023-11-29T01:05:26.268Z,-2.95
2023-11-29T01:07:52.726Z,-2.94
2023-11-29T01:10:20.662Z,-2.96
2023-11-29T01:12:48.417Z,-2.97
2023-11-29T01:15:14.994Z,-2.95
2023-11-29T01:17:41.553Z,-2.93
2023-11-29T01:20:08.683Z,-2.91
2023-11-29T01:22:35.512Z,-2.90
2023-11-29T01:25:02.085Z,-2.91
2023-11-29T01:27:32.602Z,-2.90
2023-11-29T01:29:59.122Z,-2.91
2023-11-29T01:32:25.632Z,-2.93
2023-11-29T01:34:52.285Z,-2.94
2023-11-29T01:37:18.705Z,-2.92
2023-11-29T01:39:47.401Z,-2.95
2023-11-29T01:42:13.849Z,-2.97
2023-11-29T01:44:40.296Z,-3.00
2023-11-29T01:47:09.467Z,-2.99
2023-11-29T01:49:36.316Z,-3.01
2023-11-29T01:52:03.577Z,-3.03
2023-11-29T01:54:30.314Z,-3.04
2023-11-29T01:56:56.942Z,-3.06
2023-11-29T01:59:23.475Z,-3.06
2023-11-29T02:01:49.932Z,-3.06
2023-11-29T02:04:17.468Z,-3.07
2023-11-29T02:06:44.153Z,-3.05
2023-11-29T02:09:10.649Z,-3.05
2023-11-29T02:11:40.716Z,-3.07
2023-11-29T02:14:07.328Z,-3.08
2023-11-29T02:16:34.852Z,-3.08
2023-11-29T02:19:01.396Z,-3.08
2023-11-29T02:21:28.017Z,-3.09
2023-11-29T02:24:01.552Z,-3.11
2023-11-29T02:26:28.691Z,-3.11
2023-11-29T02:28:55.191Z,-3.11
2023-11-29T02:31:21.734Z,-3.11
2023-11-29T02:33:48.292Z,-3.13
2023-11-29T02:36:14.645Z,-3.14
2023-11-29T02:38:41.148Z,-3.13
2023-11-29T02:41:07.564Z,-3.13
2023-11-29T02:43:34.066Z,-3.15
2023-11-29T02:46:00.671Z,-3.16
2023-11-29T02:48:27.139Z,-3.16
2023-11-29T02:50:53.735Z,-3.18
2023-11-29T02:53:20.190Z,-3.20
2023-11-29T02:55:46.757Z,-3.20
2023-11-29T02:58:13.164Z,-3.20
2023-11-29T03:00:39.588Z,-3.21
2023-11-29T03:03:06.110Z,-3.21
2023-11-29T03:05:32.623Z,-3.24
2023-11-29T03:07:59.058Z,-3.25
2023-11-29T03:10:25.534Z,-3.28
2023-11-29T03:12:51.936Z,-3.31
2023-11-29T03:15:18.726Z,-3.33
2023-11-29T03:17:45.256Z,-3.36
2023-11-29T03:20:12.443Z,-3.41
2023-11-29T03:22:38.890Z,-3.44
2023-11-29T03:25:05.861Z,-3.49
2023-11-29T03:27:32.296Z,-3.52
2023-11-29T03:29:59.163Z,-3.56
2023-11-29T03:32:26.888Z,-3.60
2023-11-29T03:34:54.922Z,-3.66
2023-11-29T03:37:21.554Z,-3.69
2023-11-29T03:39:48.043Z,-3.70
2023-11-29T03:42:14.461Z,-3.74
2023-11-29T03:44:41.058Z,-3.79
2023-11-29T03:47:07.466Z,-3.83
2023-11-29T03:49:33.904Z,-3.84
2023-11-29T03:52:00.441Z,-3.88
2023-11-29T03:54:26.869Z,-3.92
2023-11-29T03:56:53.308Z,-3.95
2023-11-29T03:59:19.753Z,-3.98
2023-11-29T04:01:46.355Z,-4.01
2023-11-29T04:04:13.033Z,-4.04
2023-11-29T04:06:39.478Z,-4.07
2023-11-29T04:09:06.039Z,-4.10
2023-11-29T04:11:32.578Z,-4.13
2023-11-29T04:13:59.055Z,-4.18
2023-11-29T04:16:28.018Z,-4.22
2023-11-29T04:18:55.513Z,-4.25
2023-11-29T04:21:30.666Z,-4.29
2023-11-29T04:23:57.276Z,-4.34
2023-11-29T04:26:32.041Z,-4.38
2023-11-29T04:29:00.188Z,-4.40
2023-11-29T04:31:27.527Z,-4.41
2023-11-29T04:33:54.056Z,-4.42
2023-11-29T04:36:20.498Z,-4.42
2023-11-29T04:38:48.771Z,-4.45
2023-11-29T04:41:16.622Z,-4.46
2023-11-29T04:43:44.035Z,-4.47
2023-11-29T04:46:10.894Z,-4.47
2023-11-29T04:48:37.549Z,-4.50
2023-11-29T04:51:04.414Z,-4.53
2023-11-29T04:53:31.082Z,-4.58
2023-11-29T04:55:57.614Z,-4.64
2023-11-29T04:58:24.507Z,-4.69
2023-11-29T05:00:51.441Z,-4.68
2023-11-29T05:03:21.232Z,-4.70
2023-11-29T05:05:48.857Z,-4.75
2023-11-29T05:08:15.701Z,-4.79
2023-11-29T05:10:43.318Z,-4.80
2023-11-29T05:13:09.826Z,-4.86
2023-11-29T05:15:36.756Z,-4.86
2023-11-29T05:18:06.419Z,-4.87
2023-11-29T05:20:32.931Z,-4.88
2023-11-29T05:22:59.493Z,-4.89
2023-11-29T05:25:26.216Z,-4.92
2023-11-29T05:27:52.772Z,-4.92
2023-11-29T05:30:19.288Z,-4.95
2023-11-29T05:32:46.773Z,-4.95
2023-11-29T05:35:13.936Z,-4.95
2023-11-29T05:37:42.267Z,-4.96
2023-11-29T05:40:09.987Z,-4.97
2023-11-29T05:42:36.477Z,-4.99
2023-11-29T05:45:04.854Z,-5.00
2023-11-29T05:47:31.839Z,-5.00
2023-11-29T05:50:00.421Z,-5.03
2023-11-29T05:52:27.372Z,-5.06
2023-11-29T05:54:54.512Z,-5.11
2023-11-29T05:57:21.151Z,-5.16
2023-11-29T05:59:47.606Z,-5.15
2023-11-29T06:02:15.071Z,-5.14
2023-11-29T06:04:41.562Z,-5.11
2023-11-29T06:07:08.030Z,-5.13
2023-11-29T06:09:38.213Z,-5.15
2023-11-29T06:12:05.001Z,-5.15
2023-11-29T06:14:31.528Z,-5.16
2023-11-29T06:16:57.997Z,-5.15
2023-11-29T06:19:27.051Z,-5.15
2023-11-29T06:21:54.797Z,-5.16
2023-11-29T06:24:21.290Z,-5.16
2023-11-29T06:26:48.592Z,-5.17
2023-11-29T06:29:15.186Z,-5.17
2023-11-29T06:31:41.649Z,-5.18
2023-11-29T06:34:17.332Z,-5.17
2023-11-29T06:36:43.801Z,-5.17
2023-11-29T06:39:10.403Z,-5.17
2023-11-29T06:41:37.288Z,-5.21
2023-11-29T06:44:08.719Z,-5.21
2023-11-29T06:46:35.345Z,-5.23
2023-11-29T06:49:02.234Z,-5.25
2023-11-29T06:51:29.054Z,-5.27
2023-11-29T06:53:58.535Z,-5.25
2023-11-29T06:56:26.123Z,-5.21
2023-11-29T06:58:52.696Z,-5.18
2023-11-29T07:01:19.504Z,-5.15
2023-11-29T07:03:50.735Z,-5.13
2023-11-29T07:06:25.513Z,-5.10
2023-11-29T07:08:54.976Z,-5.05
2023-11-29T07:11:21.656Z,-5.04
2023-11-29T07:13:48.297Z,-5.02
2023-11-29T07:17:20.760Z,-4.99
2023-11-29T07:19:53.309Z,-4.92
2023-11-29T07:22:20.199Z,-4.87
2023-11-29T07:24:50.313Z,-4.82
2023-11-29T07:27:16.954Z,-4.77
2023-11-29T07:38:18.879Z,-4.60
2023-11-29T07:40:45.496Z,-4.55
2023-11-29T07:43:13.890Z,-4.53
2023-11-29T07:45:42.464Z,-4.52
2023-11-29T07:48:18.296Z,-4.51
2023-11-29T07:50:45.271Z,-4.49
2023-11-29T07:53:13.295Z,-4.48
2023-11-29T07:55:40.046Z,-4.44
2023-11-29T07:58:21.028Z,-4.38
2023-11-29T08:00:54.182Z,-4.39
2023-11-29T08:03:20.657Z,-4.39
2023-11-29T08:05:47.801Z,-4.38
2023-11-29T08:08:14.539Z,-4.36
2023-11-29T08:10:45.337Z,-4.33
2023-11-29T08:13:13.246Z,-4.29
2023-11-29T08:15:43.740Z,-4.26
2023-11-29T08:18:10.669Z,-4.22
2023-11-29T08:20:37.609Z,-4.17
2023-11-29T08:23:05.211Z,-4.15
2023-11-29T08:28:41.335Z,-4.18
2023-11-29T08:31:57.388Z,-4.15
2023-11-29T08:34:27.146Z,-4.14
2023-11-29T08:36:56.762Z,-4.11
2023-11-29T08:40:26.108Z,-4.10
2023-11-29T08:43:58.548Z,-4.04
2023-11-29T08:46:25.250Z,-3.99
2023-11-29T08:48:51.935Z,-3.96
2023-11-29T08:51:18.692Z,-3.95
2023-11-29T08:53:45.533Z,-3.91
2023-11-29T08:56:19.310Z,-3.86
2023-11-29T08:58:49.351Z,-3.83
2023-11-29T09:01:22.286Z,-3.81
2023-11-29T09:03:49.459Z,-3.77
2023-11-29T09:06:17.555Z,-3.70
2023-11-29T09:08:44.786Z,-3.62
2023-11-29T09:11:13.027Z,-3.62
2023-11-29T09:13:40.033Z,-3.60
2023-11-29T09:16:26.650Z,-3.57
2023-11-29T09:18:55.700Z,-3.53
2023-11-29T09:21:27.212Z,-3.51
2023-11-29T09:23:55.483Z,-3.48
2023-11-29T09:26:23.230Z,-3.49
2023-11-29T09:29:02.444Z,-3.52
2023-11-29T09:31:36.468Z,-3.55
2023-11-29T09:34:16.856Z,-3.53
2023-11-29T09:37:09.620Z,-3.53
2023-11-29T09:40:21.217Z,-3.52
2023-11-29T09:43:17.262Z,-3.45
2023-11-29T09:46:05.960Z,-3.36
2023-11-29T09:49:12.420Z,-3.30
2023-11-29T09:51:51.007Z,-3.25
2023-11-29T09:54:29.527Z,-3.20
2023-11-29T09:57:14.448Z,-3.16
2023-11-29T09:59:55.882Z,-3.13
2023-11-29T10:02:29.257Z,-3.15
2023-11-29T10:11:17.036Z,-3.07
2023-11-29T10:13:47.277Z,-3.06
2023-11-29T10:16:53.926Z,-3.05
2023-11-29T10:24:38.460Z,-2.99
2023-11-29T10:27:22.621Z,-3.02
2023-11-29T10:30:04.092Z,-2.94
2023-11-29T10:39:26.671Z,-2.88
2023-11-29T10:42:34.275Z,-2.83
2023-11-29T10:45:03.969Z,-2.72
2023-11-29T10:47:52.507Z,-2.67
2023-11-29T10:54:40.714Z,-2.77
2023-11-29T10:57:56.417Z,-2.80
2023-11-29T11:03:49.203Z,-2.90
2023-11-29T11:06:24.564Z,-2.97
2023-11-29T11:08:56.347Z,-3.03
2023-11-29T11:11:48.376Z,-2.98
2023-11-29T11:14:22.019Z,-2.98
2023-11-29T11:17:05.285Z,-2.93
2023-11-29T11:19:43.232Z,-2.89
2023-11-29T11:22:21.255Z,-2.87
2023-11-29T11:25:14.178Z,-2.88
2023-11-29T11:27:44.781Z,-2.82
2023-11-29T11:30:15.584Z,-2.80
2023-11-29T11:32:48.658Z,-2.80
2023-11-29T11:35:23.043Z,-2.86
2023-11-29T11:38:02.747Z,-2.95
2023-11-29T11:40:36.863Z,-3.03
2023-11-29T11:43:05.745Z,-3.08
2023-11-29T11:45:35.675Z,-3.05
2023-11-29T11:48:06.194Z,-3.03
2023-11-29T11:50:37.418Z,-2.99
2023-11-29T11:53:07.836Z,-3.05
2023-11-29T11:55:41.141Z,-3.03
2023-11-29T11:58:10.927Z,-2.95
2023-11-29T12:00:44.035Z,-2.89
2023-11-29T12:03:35.786Z,-2.87
2023-11-29T12:06:32.192Z,-2.92
2023-11-29T12:14:15.119Z,-2.97
2023-11-29T12:16:43.302Z,-2.93
2023-11-29T12:19:11.716Z,-2.88
2023-11-29T12:21:42.373Z,-2.96
2023-11-29T12:24:12.835Z,-3.04
2023-11-29T12:26:40.808Z,-3.06
2023-11-29T12:29:09.816Z,-3.07
2023-11-29T12:31:38.456Z,-3.06
2023-11-29T12:34:16.863Z,-3.12
2023-11-29T12:36:47.487Z,-3.13
2023-11-29T12:39:18.874Z,-3.17
2023-11-29T12:41:46.891Z,-3.11
2023-11-29T12:44:39.478Z,-3.10
2023-11-29T12:47:07.563Z,-3.14
2023-11-29T12:49:35.785Z,-3.13
2023-11-29T12:52:55.146Z,-3.20
2023-11-29T12:57:23.500Z,-3.29
2023-11-29T13:04:34.801Z,-3.26
2023-11-29T13:07:07.306Z,-3.19
2023-11-29T13:26:15.063Z,-2.69
2023-11-29T13:28:43.181Z,-2.68
2023-11-29T13:31:11.598Z,-2.74
2023-11-29T13:33:47.764Z,-2.77
2023-11-29T13:36:15.933Z,-2.78
2023-11-29T13:39:06.757Z,-2.80
2023-11-29T13:42:01.946Z,-2.81
2023-11-29T13:44:38.730Z,-2.83
2023-11-29T13:47:07.955Z,-2.87
2023-11-29T13:49:38.515Z,-2.91
2023-11-29T13:52:22.708Z,-2.94
2023-11-29T13:54:52.905Z,-2.97
2023-11-29T13:57:20.972Z,-2.98
2023-11-29T13:59:57.835Z,-3.00
2023-11-29T14:02:29.221Z,-3.09
2023-11-29T14:05:01.736Z,-3.20
2023-11-29T14:07:29.786Z,-3.29
2023-11-29T14:09:58.084Z,-3.34
2023-11-29T14:12:26.762Z,-3.37
2023-11-29T14:14:58.153Z,-3.39
2023-11-29T14:17:26.286Z,-3.41
2023-11-29T14:19:54.200Z,-3.43
2023-11-29T14:22:32.281Z,-3.47
2023-11-29T14:25:07.726Z,-3.51
2023-11-29T14:27:44.969Z,-3.54
2023-11-29T14:30:20.651Z,-3.60
2023-11-29T14:32:51.467Z,-3.67
2023-11-29T14:35:20.931Z,-3.71
2023-11-29T14:37:48.797Z,-3.76
2023-11-29T14:40:16.793Z,-3.84
2023-11-29T14:42:47.489Z,-3.91
2023-11-29T14:45:15.367Z,-3.97
2023-11-29T14:47:43.482Z,-4.03
2023-11-29T14:50:11.469Z,-4.15
2023-11-29T14:52:39.404Z,-4.23
2023-11-29T14:55:07.283Z,-4.31
2023-11-29T14:57:35.783Z,-4.42
2023-11-29T15:00:11.185Z,-4.51
2023-11-29T15:02:59.166Z,-4.60
2023-11-29T15:05:40.128Z,-4.71
2023-11-29T15:08:35.142Z,-4.82
2023-11-29T15:11:30.251Z,-4.91
2023-11-29T15:14:18.144Z,-5.01
2023-11-29T15:16:52.284Z,-5.10
2023-11-29T15:19:40.164Z,-5.16
2023-11-29T15:22:08.056Z,-5.23
2023-11-29T15:24:35.886Z,-5.30
2023-11-29T15:27:04.097Z,-5.37
2023-11-29T15:29:34.181Z,-5.44
2023-11-29T15:32:03.561Z,-5.51
2023-11-29T15:34:31.817Z,-5.58
2023-11-29T15:36:59.946Z,-5.64
2023-11-29T15:39:27.751Z,-5.69
2023-11-29T15:41:57.568Z,-5.74
2023-11-29T15:44:27.700Z,-5.83
2023-11-29T15:46:56.124Z,-5.88
2023-11-29T15:49:23.997Z,-5.97
2023-11-29T15:51:51.833Z,-6.05
2023-11-29T15:54:19.688Z,-6.09
2023-11-29T15:56:47.519Z,-6.14
2023-11-29T15:59:15.361Z,-6.18
2023-11-29T16:01:43.248Z,-6.20
2023-11-29T16:04:11.228Z,-6.28
2023-11-29T16:06:39.328Z,-6.38
2023-11-29T16:09:07.389Z,-6.48
2023-11-29T16:11:35.889Z,-6.58
2023-11-29T16:14:03.765Z,-6.62
2023-11-29T16:16:31.615Z,-6.61
2023-11-29T16:19:00.010Z,-6.53
2023-11-29T16:21:27.863Z,-6.45
2023-11-29T16:23:55.905Z,-6.40
2023-11-29T16:26:23.903Z,-6.35
2023-11-29T16:28:52.472Z,-6.30
2023-11-29T16:31:20.357Z,-6.27
2023-11-29T16:33:48.415Z,-6.24
2023-11-29T16:36:16.672Z,-6.22
2023-11-29T16:38:45.842Z,-6.22
2023-11-29T16:41:15.877Z,-6.24
2023-11-29T16:43:46.639Z,-6.21
2023-11-29T16:46:14.789Z,-6.22
2023-11-29T16:48:42.841Z,-6.23
2023-11-29T16:51:11.025Z,-6.26
2023-11-29T16:53:38.950Z,-6.27
2023-11-29T16:56:07.457Z,-6.31
2023-11-29T16:58:36.471Z,-6.33
2023-11-29T17:01:04.814Z,-6.35
2023-11-29T17:03:32.817Z,-6.39
2023-11-29T17:06:00.813Z,-6.48
2023-11-29T17:08:28.744Z,-6.56
2023-11-29T17:10:56.565Z,-6.60
2023-11-29T17:13:24.424Z,-6.64
2023-11-29T17:15:52.358Z,-6.71
2023-11-29T17:18:20.299Z,-6.79
2023-11-29T17:20:48.430Z,-6.85
2023-11-29T17:23:16.345Z,-6.93
2023-11-29T17:25:44.261Z,-7.01
2023-11-29T17:28:12.235Z,-7.07
2023-11-29T17:30:40.228Z,-7.15
2023-11-29T17:33:08.218Z,-7.22
2023-11-29T17:35:36.340Z,-7.31
2023-11-29T17:38:07.073Z,-7.34
2023-11-29T17:40:37.271Z,-7.41
2023-11-29T17:43:08.120Z,-7.47
2023-11-29T17:45:39.580Z,-7.51
2023-11-29T17:48:07.483Z,-7.60
2023-11-29T17:50:37.131Z,-7.64
2023-11-29T17:53:08.204Z,-7.65
2023-11-29T17:55:36.175Z,-7.72
2023-11-29T17:58:04.288Z,-7.74
2023-11-29T18:00:38.210Z,-7.77
2023-11-29T18:03:06.505Z,-7.80
2023-11-29T18:09:10.158Z,-7.81
2023-11-29T18:11:52.375Z,-7.80
2023-11-29T18:14:24.717Z,-7.81
2023-11-29T18:17:06.086Z,-7.81
2023-11-29T18:19:34.414Z,-7.81
2023-11-29T18:22:11.186Z,-7.82
2023-11-29T18:25:21.930Z,-7.82
2023-11-29T18:27:58.697Z,-7.84
2023-11-29T18:30:42.210Z,-7.88
2023-11-29T18:33:14.608Z,-7.91
2023-11-29T18:36:02.649Z,-7.93
2023-11-29T18:38:36.762Z,-7.96
2023-11-29T18:41:12.466Z,-7.95
2023-11-29T18:51:39.551Z,-8.14
2023-11-29T18:54:24.043Z,-8.11
2023-11-29T19:10:11.883Z,-8.19
2023-11-29T19:12:44.128Z,-8.23
2023-11-29T19:32:05.742Z,-8.13
2023-11-29T19:35:42.208Z,-8.11
2023-11-29T19:38:58.427Z,-8.11
2023-11-29T19:46:21.829Z,-7.70
2023-11-29T19:49:26.339Z,-7.47
2023-11-29T19:52:58.675Z,-7.20
2023-11-29T19:55:46.817Z,-6.90
2023-11-29T19:59:55.645Z,-6.68
2023-11-29T20:06:58.834Z,-6.23
2023-11-29T20:54:28.655Z,-4.89
2023-11-29T21:13:57.056Z,-5.01
